sensor_id;sensor_type;location;lat;lon;timestamp;P1;durP1;ratioP1;P2;durP2;ratioP2
74074;SDS011;62428;51.412;5.432;2022-09-03T00:00:21;23.75;;;8.82;;
74074;SDS011;62428;51.412;5.432;2022-09-03T00:03:01;24.83;;;9.02;;
74074;SDS011;62428;51.412;5.432;2022-09-03T00:08:32;22.45;;;9.85;;
74074;SDS011;62428;51.412;5.432;2022-09-03T00:14:25;29.75;;;12.63;;
74074;SDS011;62428;51.412;5.432;2022-09-03T00:16:56;30.42;;;12.50;;
74074;SDS011;62428;51.412;5.432;2022-09-03T00:19:28;33.42;;;12.50;;
74074;SDS011;62428;51.412;5.432;2022-09-03T00:21:59;32.53;;;13.02;;
74074;SDS011;62428;51.412;5.432;2022-09-03T00:24:33;38.20;;;13.90;;
74074;SDS011;62428;51.412;5.432;2022-09-03T00:27:02;35.92;;;14.15;;
74074;SDS011;62428;51.412;5.432;2022-09-03T00:29:34;35.97;;;15.65;;
74074;SDS011;62428;51.412;5.432;2022-09-03T00:32:08;38.60;;;16.70;;
74074;SDS011;62428;51.412;5.432;2022-09-03T00:34:42;41.08;;;17.52;;
74074;SDS011;62428;51.412;5.432;2022-09-03T00:37:13;49.43;;;17.60;;
74074;SDS011;62428;51.412;5.432;2022-09-03T00:39:38;45.03;;;18.05;;
74074;SDS011;62428;51.412;5.432;2022-09-03T00:47:14;41.17;;;18.97;;
74074;SDS011;62428;51.412;5.432;2022-09-03T00:50:32;44.67;;;17.88;;
74074;SDS011;62428;51.412;5.432;2022-09-03T00:58:19;42.17;;;16.73;;
74074;SDS011;62428;51.412;5.432;2022-09-03T01:01:14;40.07;;;15.93;;
74074;SDS011;62428;51.412;5.432;2022-09-03T01:04:03;39.40;;;15.02;;
74074;SDS011;62428;51.412;5.432;2022-09-03T01:06:54;33.70;;;13.23;;
74074;SDS011;62428;51.412;5.432;2022-09-03T01:10:11;40.65;;;15.52;;
74074;SDS011;62428;51.412;5.432;2022-09-03T01:17:50;28.45;;;12.65;;
74074;SDS011;62428;51.412;5.432;2022-09-03T01:26:18;29.58;;;10.55;;
74074;SDS011;62428;51.412;5.432;2022-09-03T01:31:47;26.08;;;9.80;;
74074;SDS011;62428;51.412;5.432;2022-09-03T01:42:00;18.77;;;8.47;;
74074;SDS011;62428;51.412;5.432;2022-09-03T01:50:42;15.13;;;6.72;;
74074;SDS011;62428;51.412;5.432;2022-09-03T01:58:46;13.10;;;5.72;;
74074;SDS011;62428;51.412;5.432;2022-09-03T02:04:31;16.30;;;5.30;;
74074;SDS011;62428;51.412;5.432;2022-09-03T02:06:57;15.40;;;5.03;;
74074;SDS011;62428;51.412;5.432;2022-09-03T02:09:24;11.75;;;5.18;;
74074;SDS011;62428;51.412;5.432;2022-09-03T02:12:02;9.77;;;4.07;;
74074;SDS011;62428;51.412;5.432;2022-09-03T02:14:35;11.20;;;4.80;;
74074;SDS011;62428;51.412;5.432;2022-09-03T02:17:01;9.40;;;3.83;;
74074;SDS011;62428;51.412;5.432;2022-09-03T02:19:27;9.88;;;3.80;;
74074;SDS011;62428;51.412;5.432;2022-09-03T02:21:54;13.02;;;4.00;;
74074;SDS011;62428;51.412;5.432;2022-09-03T02:24:21;9.37;;;3.73;;
74074;SDS011;62428;51.412;5.432;2022-09-03T02:26:48;9.48;;;3.40;;
74074;SDS011;62428;51.412;5.432;2022-09-03T02:29:14;8.63;;;3.50;;
74074;SDS011;62428;51.412;5.432;2022-09-03T02:31:41;7.93;;;3.47;;
74074;SDS011;62428;51.412;5.432;2022-09-03T02:34:07;8.05;;;3.53;;
74074;SDS011;62428;51.412;5.432;2022-09-03T02:36:34;11.73;;;3.43;;
74074;SDS011;62428;51.412;5.432;2022-09-03T02:39:02;5.72;;;3.00;;
74074;SDS011;62428;51.412;5.432;2022-09-03T02:41:28;9.38;;;3.35;;
74074;SDS011;62428;51.412;5.432;2022-09-03T02:46:24;6.60;;;2.88;;
74074;SDS011;62428;51.412;5.432;2022-09-03T02:48:56;7.28;;;2.88;;
74074;SDS011;62428;51.412;5.432;2022-09-03T02:51:21;8.13;;;2.63;;
74074;SDS011;62428;51.412;5.432;2022-09-03T02:53:46;6.37;;;2.70;;
74074;SDS011;62428;51.412;5.432;2022-09-03T02:56:12;6.93;;;2.87;;
74074;SDS011;62428;51.412;5.432;2022-09-03T02:58:37;5.40;;;2.70;;
74074;SDS011;62428;51.412;5.432;2022-09-03T03:01:03;7.07;;;2.63;;
74074;SDS011;62428;51.412;5.432;2022-09-03T03:03:29;7.07;;;2.55;;
74074;SDS011;62428;51.412;5.432;2022-09-03T03:05:55;5.45;;;2.40;;
74074;SDS011;62428;51.412;5.432;2022-09-03T03:08:25;8.38;;;2.38;;
74074;SDS011;62428;51.412;5.432;2022-09-03T03:10:56;4.37;;;1.90;;
74074;SDS011;62428;51.412;5.432;2022-09-03T03:13:25;7.72;;;2.33;;
74074;SDS011;62428;51.412;5.432;2022-09-03T03:15:55;7.20;;;2.08;;
74074;SDS011;62428;51.412;5.432;2022-09-03T03:18:25;4.70;;;2.10;;
74074;SDS011;62428;51.412;5.432;2022-09-03T03:20:52;5.25;;;2.10;;
74074;SDS011;62428;51.412;5.432;2022-09-03T03:23:18;6.23;;;2.30;;
74074;SDS011;62428;51.412;5.432;2022-09-03T03:25:44;5.63;;;1.77;;
74074;SDS011;62428;51.412;5.432;2022-09-03T03:28:09;5.47;;;1.70;;
74074;SDS011;62428;51.412;5.432;2022-09-03T03:30:38;4.90;;;2.10;;
74074;SDS011;62428;51.412;5.432;2022-09-03T03:33:08;8.18;;;1.80;;
74074;SDS011;62428;51.412;5.432;2022-09-03T03:35:34;4.88;;;1.90;;
74074;SDS011;62428;51.412;5.432;2022-09-03T03:38:00;5.60;;;2.08;;
74074;SDS011;62428;51.412;5.432;2022-09-03T03:40:26;3.90;;;1.80;;
74074;SDS011;62428;51.412;5.432;2022-09-03T03:42:51;4.35;;;1.85;;
74074;SDS011;62428;51.412;5.432;2022-09-03T03:45:17;5.87;;;1.80;;
74074;SDS011;62428;51.412;5.432;2022-09-03T03:47:42;3.43;;;1.67;;
74074;SDS011;62428;51.412;5.432;2022-09-03T03:50:08;5.20;;;1.60;;
74074;SDS011;62428;51.412;5.432;2022-09-03T03:52:33;4.77;;;1.60;;
74074;SDS011;62428;51.412;5.432;2022-09-03T03:54:59;7.43;;;1.63;;
74074;SDS011;62428;51.412;5.432;2022-09-03T03:57:24;3.10;;;1.27;;
74074;SDS011;62428;51.412;5.432;2022-09-03T03:59:50;6.73;;;1.60;;
74074;SDS011;62428;51.412;5.432;2022-09-03T04:02:15;3.83;;;1.52;;
74074;SDS011;62428;51.412;5.432;2022-09-03T04:04:41;7.73;;;1.40;;
74074;SDS011;62428;51.412;5.432;2022-09-03T04:07:07;2.67;;;1.45;;
74074;SDS011;62428;51.412;5.432;2022-09-03T04:09:32;6.83;;;1.47;;
74074;SDS011;62428;51.412;5.432;2022-09-03T04:11:58;4.87;;;1.43;;
74074;SDS011;62428;51.412;5.432;2022-09-03T04:14:24;3.47;;;1.10;;
74074;SDS011;62428;51.412;5.432;2022-09-03T04:16:51;4.80;;;1.58;;
74074;SDS011;62428;51.412;5.432;2022-09-03T04:19:17;9.53;;;1.60;;
74074;SDS011;62428;51.412;5.432;2022-09-03T04:21:42;5.20;;;1.35;;
74074;SDS011;62428;51.412;5.432;2022-09-03T04:24:08;3.23;;;1.20;;
74074;SDS011;62428;51.412;5.432;2022-09-03T04:26:33;3.93;;;1.40;;
74074;SDS011;62428;51.412;5.432;2022-09-03T04:29:01;4.20;;;0.98;;
74074;SDS011;62428;51.412;5.432;2022-09-03T04:31:30;5.97;;;1.20;;
74074;SDS011;62428;51.412;5.432;2022-09-03T04:33:57;2.95;;;1.30;;
74074;SDS011;62428;51.412;5.432;2022-09-03T04:36:24;2.30;;;0.93;;
74074;SDS011;62428;51.412;5.432;2022-09-03T04:38:52;2.57;;;1.20;;
74074;SDS011;62428;51.412;5.432;2022-09-03T04:41:20;4.07;;;1.20;;
74074;SDS011;62428;51.412;5.432;2022-09-03T04:43:54;2.53;;;1.25;;
74074;SDS011;62428;51.412;5.432;2022-09-03T04:46:21;3.70;;;1.23;;
74074;SDS011;62428;51.412;5.432;2022-09-03T04:48:50;2.58;;;1.13;;
74074;SDS011;62428;51.412;5.432;2022-09-03T04:51:21;3.53;;;1.03;;
74074;SDS011;62428;51.412;5.432;2022-09-03T04:53:52;5.88;;;1.00;;
74074;SDS011;62428;51.412;5.432;2022-09-03T04:56:21;2.30;;;0.80;;
74074;SDS011;62428;51.412;5.432;2022-09-03T04:58:55;3.10;;;1.20;;
74074;SDS011;62428;51.412;5.432;2022-09-03T05:01:24;2.58;;;0.90;;
74074;SDS011;62428;51.412;5.432;2022-09-03T05:03:51;2.00;;;0.97;;
74074;SDS011;62428;51.412;5.432;2022-09-03T05:06:16;6.03;;;0.90;;
74074;SDS011;62428;51.412;5.432;2022-09-03T05:08:43;5.60;;;1.10;;
74074;SDS011;62428;51.412;5.432;2022-09-03T05:11:12;1.55;;;0.90;;
74074;SDS011;62428;51.412;5.432;2022-09-03T05:13:38;1.83;;;0.73;;
74074;SDS011;62428;51.412;5.432;2022-09-03T05:16:05;3.23;;;0.90;;
74074;SDS011;62428;51.412;5.432;2022-09-03T05:18:33;2.45;;;0.88;;
74074;SDS011;62428;51.412;5.432;2022-09-03T05:21:03;4.03;;;1.20;;
74074;SDS011;62428;51.412;5.432;2022-09-03T05:23:30;3.75;;;0.88;;
74074;SDS011;62428;51.412;5.432;2022-09-03T05:26:00;4.35;;;1.15;;
74074;SDS011;62428;51.412;5.432;2022-09-03T05:28:28;3.50;;;1.23;;
74074;SDS011;62428;51.412;5.432;2022-09-03T05:31:04;3.08;;;1.15;;
74074;SDS011;62428;51.412;5.432;2022-09-03T05:33:34;2.55;;;1.20;;
74074;SDS011;62428;51.412;5.432;2022-09-03T05:36:05;3.65;;;1.05;;
74074;SDS011;62428;51.412;5.432;2022-09-03T05:38:32;4.15;;;1.02;;
74074;SDS011;62428;51.412;5.432;2022-09-03T05:41:02;3.20;;;1.03;;
74074;SDS011;62428;51.412;5.432;2022-09-03T05:43:29;4.55;;;1.38;;
74074;SDS011;62428;51.412;5.432;2022-09-03T05:46:05;5.13;;;1.20;;
74074;SDS011;62428;51.412;5.432;2022-09-03T05:48:35;5.28;;;1.10;;
74074;SDS011;62428;51.412;5.432;2022-09-03T05:51:04;3.17;;;1.10;;
74074;SDS011;62428;51.412;5.432;2022-09-03T05:53:32;2.75;;;0.98;;
74074;SDS011;62428;51.412;5.432;2022-09-03T05:55:59;5.47;;;0.90;;
74074;SDS011;62428;51.412;5.432;2022-09-03T05:58:33;3.45;;;1.17;;
74074;SDS011;62428;51.412;5.432;2022-09-03T06:01:08;3.40;;;1.33;;
74074;SDS011;62428;51.412;5.432;2022-09-03T06:03:41;4.40;;;1.20;;
74074;SDS011;62428;51.412;5.432;2022-09-03T06:06:07;2.67;;;1.17;;
74074;SDS011;62428;51.412;5.432;2022-09-03T06:08:33;2.08;;;0.98;;
74074;SDS011;62428;51.412;5.432;2022-09-03T06:11:01;3.78;;;0.95;;
74074;SDS011;62428;51.412;5.432;2022-09-03T06:13:30;6.10;;;1.10;;
74074;SDS011;62428;51.412;5.432;2022-09-03T06:15:57;2.95;;;1.05;;
74074;SDS011;62428;51.412;5.432;2022-09-03T06:18:24;5.28;;;1.08;;
74074;SDS011;62428;51.412;5.432;2022-09-03T06:20:54;2.22;;;0.85;;
74074;SDS011;62428;51.412;5.432;2022-09-03T06:23:21;2.80;;;0.80;;
74074;SDS011;62428;51.412;5.432;2022-09-03T06:25:47;4.00;;;0.90;;
74074;SDS011;62428;51.412;5.432;2022-09-03T06:28:12;3.60;;;0.90;;
74074;SDS011;62428;51.412;5.432;2022-09-03T06:30:37;4.40;;;1.08;;
74074;SDS011;62428;51.412;5.432;2022-09-03T06:33:03;1.60;;;0.73;;
74074;SDS011;62428;51.412;5.432;2022-09-03T06:35:28;7.53;;;0.93;;
74074;SDS011;62428;51.412;5.432;2022-09-03T06:37:53;4.03;;;0.90;;
74074;SDS011;62428;51.412;5.432;2022-09-03T06:40:18;1.67;;;0.80;;
74074;SDS011;62428;51.412;5.432;2022-09-03T06:42:54;4.82;;;1.00;;
74074;SDS011;62428;51.412;5.432;2022-09-03T06:45:23;4.03;;;0.85;;
74074;SDS011;62428;51.412;5.432;2022-09-03T06:47:48;8.17;;;1.27;;
74074;SDS011;62428;51.412;5.432;2022-09-03T06:50:13;4.37;;;0.90;;
74074;SDS011;62428;51.412;5.432;2022-09-03T06:52:39;5.30;;;1.23;;
74074;SDS011;62428;51.412;5.432;2022-09-03T06:55:04;5.83;;;1.27;;
74074;SDS011;62428;51.412;5.432;2022-09-03T06:57:30;11.82;;;0.93;;
74074;SDS011;62428;51.412;5.432;2022-09-03T06:59:55;2.80;;;0.83;;
74074;SDS011;62428;51.412;5.432;2022-09-03T07:02:21;2.30;;;0.90;;
74074;SDS011;62428;51.412;5.432;2022-09-03T07:04:47;2.00;;;1.08;;
74074;SDS011;62428;51.412;5.432;2022-09-03T07:07:13;3.90;;;1.10;;
74074;SDS011;62428;51.412;5.432;2022-09-03T07:09:40;3.87;;;1.20;;
74074;SDS011;62428;51.412;5.432;2022-09-03T07:12:05;5.35;;;1.30;;
74074;SDS011;62428;51.412;5.432;2022-09-03T07:14:31;5.40;;;1.20;;
74074;SDS011;62428;51.412;5.432;2022-09-03T07:16:57;6.43;;;1.05;;
74074;SDS011;62428;51.412;5.432;2022-09-03T07:19:22;3.53;;;1.20;;
74074;SDS011;62428;51.412;5.432;2022-09-03T07:21:47;9.67;;;1.60;;
74074;SDS011;62428;51.412;5.432;2022-09-03T07:24:13;8.33;;;1.50;;
74074;SDS011;62428;51.412;5.432;2022-09-03T07:26:39;8.03;;;1.50;;
74074;SDS011;62428;51.412;5.432;2022-09-03T07:29:08;7.22;;;1.30;;
74074;SDS011;62428;51.412;5.432;2022-09-03T07:31:36;2.75;;;1.05;;
74074;SDS011;62428;51.412;5.432;2022-09-03T07:34:04;11.63;;;1.35;;
74074;SDS011;62428;51.412;5.432;2022-09-03T07:36:34;3.88;;;1.02;;
74074;SDS011;62428;51.412;5.432;2022-09-03T07:39:03;4.67;;;1.33;;
74074;SDS011;62428;51.412;5.432;2022-09-03T07:41:29;6.47;;;1.20;;
74074;SDS011;62428;51.412;5.432;2022-09-03T07:43:57;5.85;;;1.42;;
74074;SDS011;62428;51.412;5.432;2022-09-03T07:46:25;4.57;;;1.10;;
74074;SDS011;62428;51.412;5.432;2022-09-03T07:48:52;11.57;;;1.23;;
74074;SDS011;62428;51.412;5.432;2022-09-03T07:51:22;2.73;;;1.20;;
74074;SDS011;62428;51.412;5.432;2022-09-03T07:53:51;4.30;;;0.90;;
74074;SDS011;62428;51.412;5.432;2022-09-03T07:56:18;4.40;;;1.27;;
74074;SDS011;62428;51.412;5.432;2022-09-03T07:58:43;6.07;;;1.23;;
74074;SDS011;62428;51.412;5.432;2022-09-03T08:01:12;3.17;;;0.87;;
74074;SDS011;62428;51.412;5.432;2022-09-03T08:03:46;3.85;;;0.88;;
74074;SDS011;62428;51.412;5.432;2022-09-03T08:06:13;7.93;;;1.20;;
74074;SDS011;62428;51.412;5.432;2022-09-03T08:08:40;7.47;;;1.20;;
74074;SDS011;62428;51.412;5.432;2022-09-03T08:11:09;4.03;;;1.10;;
74074;SDS011;62428;51.412;5.432;2022-09-03T08:13:39;4.22;;;1.45;;
74074;SDS011;62428;51.412;5.432;2022-09-03T08:16:08;2.20;;;0.90;;
74074;SDS011;62428;51.412;5.432;2022-09-03T08:18:34;5.72;;;1.42;;
74074;SDS011;62428;51.412;5.432;2022-09-03T08:23:31;2.67;;;1.08;;
74074;SDS011;62428;51.412;5.432;2022-09-03T08:26:07;7.07;;;1.33;;
74074;SDS011;62428;51.412;5.432;2022-09-03T08:28:33;8.80;;;1.17;;
74074;SDS011;62428;51.412;5.432;2022-09-03T08:31:13;7.33;;;1.30;;
74074;SDS011;62428;51.412;5.432;2022-09-03T08:33:43;7.05;;;1.30;;
74074;SDS011;62428;51.412;5.432;2022-09-03T08:36:17;6.85;;;1.00;;
74074;SDS011;62428;51.412;5.432;2022-09-03T08:38:46;6.78;;;1.13;;
74074;SDS011;62428;51.412;5.432;2022-09-03T08:46:48;5.30;;;1.30;;
74074;SDS011;62428;51.412;5.432;2022-09-03T08:50:03;6.88;;;1.42;;
74074;SDS011;62428;51.412;5.432;2022-09-03T08:55:07;4.75;;;1.30;;
74074;SDS011;62428;51.412;5.432;2022-09-03T08:57:39;3.95;;;1.30;;
74074;SDS011;62428;51.412;5.432;2022-09-03T09:00:11;3.92;;;1.23;;
74074;SDS011;62428;51.412;5.432;2022-09-03T09:05:47;6.47;;;1.40;;
74074;SDS011;62428;51.412;5.432;2022-09-03T09:08:51;2.80;;;1.02;;
74074;SDS011;62428;51.412;5.432;2022-09-03T09:12:09;10.23;;;1.27;;
74074;SDS011;62428;51.412;5.432;2022-09-03T09:18:08;7.07;;;1.30;;
74074;SDS011;62428;51.412;5.432;2022-09-03T09:22:52;4.68;;;1.13;;
74074;SDS011;62428;51.412;5.432;2022-09-03T09:25:22;3.95;;;1.63;;
74074;SDS011;62428;51.412;5.432;2022-09-03T09:27:51;3.88;;;1.38;;
74074;SDS011;62428;51.412;5.432;2022-09-03T09:30:22;3.20;;;1.20;;
74074;SDS011;62428;51.412;5.432;2022-09-03T09:32:48;4.67;;;1.40;;
74074;SDS011;62428;51.412;5.432;2022-09-03T09:35:14;2.23;;;1.10;;
74074;SDS011;62428;51.412;5.432;2022-09-03T09:37:49;3.05;;;1.42;;
74074;SDS011;62428;51.412;5.432;2022-09-03T09:40:33;2.22;;;1.30;;
74074;SDS011;62428;51.412;5.432;2022-09-03T09:43:08;4.88;;;1.38;;
74074;SDS011;62428;51.412;5.432;2022-09-03T09:45:40;4.60;;;1.20;;
74074;SDS011;62428;51.412;5.432;2022-09-03T09:50:46;3.08;;;1.67;;
74074;SDS011;62428;51.412;5.432;2022-09-03T09:53:11;3.90;;;1.07;;
74074;SDS011;62428;51.412;5.432;2022-09-03T09:55:48;3.72;;;1.30;;
74074;SDS011;62428;51.412;5.432;2022-09-03T09:58:17;3.40;;;1.42;;
74074;SDS011;62428;51.412;5.432;2022-09-03T10:00:53;2.72;;;1.23;;
74074;SDS011;62428;51.412;5.432;2022-09-03T10:03:30;3.80;;;1.27;;
74074;SDS011;62428;51.412;5.432;2022-09-03T10:06:03;4.90;;;1.10;;
74074;SDS011;62428;51.412;5.432;2022-09-03T10:08:50;1.80;;;1.10;;
74074;SDS011;62428;51.412;5.432;2022-09-03T10:11:17;6.13;;;1.45;;
74074;SDS011;62428;51.412;5.432;2022-09-03T10:13:45;2.95;;;1.30;;
74074;SDS011;62428;51.412;5.432;2022-09-03T10:16:26;3.40;;;1.40;;
74074;SDS011;62428;51.412;5.432;2022-09-03T10:19:03;3.47;;;1.30;;
74074;SDS011;62428;51.412;5.432;2022-09-03T10:21:33;8.35;;;1.30;;
74074;SDS011;62428;51.412;5.432;2022-09-03T10:26:41;3.20;;;1.67;;
74074;SDS011;62428;51.412;5.432;2022-09-03T10:29:09;4.83;;;1.33;;
74074;SDS011;62428;51.412;5.432;2022-09-03T10:37:28;4.65;;;1.50;;
74074;SDS011;62428;51.412;5.432;2022-09-03T10:51:00;2.60;;;1.60;;
74074;SDS011;62428;51.412;5.432;2022-09-03T11:05:06;2.65;;;1.48;;
74074;SDS011;62428;51.412;5.432;2022-09-03T11:07:38;3.28;;;1.58;;
74074;SDS011;62428;51.412;5.432;2022-09-03T11:12:56;4.45;;;1.30;;
74074;SDS011;62428;51.412;5.432;2022-09-03T11:15:45;2.85;;;1.17;;
74074;SDS011;62428;51.412;5.432;2022-09-03T11:21:05;7.43;;;1.60;;
74074;SDS011;62428;51.412;5.432;2022-09-03T11:23:37;4.53;;;1.70;;
74074;SDS011;62428;51.412;5.432;2022-09-03T11:26:08;3.03;;;1.80;;
74074;SDS011;62428;51.412;5.432;2022-09-03T11:34:31;3.78;;;1.73;;
74074;SDS011;62428;51.412;5.432;2022-09-03T11:37:21;3.17;;;1.47;;
74074;SDS011;62428;51.412;5.432;2022-09-03T11:42:33;4.97;;;1.73;;
74074;SDS011;62428;51.412;5.432;2022-09-03T11:45:14;2.92;;;1.83;;
74074;SDS011;62428;51.412;5.432;2022-09-03T11:47:58;3.50;;;1.52;;
74074;SDS011;62428;51.412;5.432;2022-09-03T11:50:25;3.30;;;1.57;;
74074;SDS011;62428;51.412;5.432;2022-09-03T11:53:37;6.95;;;2.08;;
74074;SDS011;62428;51.412;5.432;2022-09-03T11:55:49;2.85;;;1.80;;
74074;SDS011;62428;51.412;5.432;2022-09-03T11:58:24;4.27;;;2.00;;
74074;SDS011;62428;51.412;5.432;2022-09-03T12:00:53;3.42;;;1.83;;
74074;SDS011;62428;51.412;5.432;2022-09-03T12:03:35;4.10;;;1.80;;
74074;SDS011;62428;51.412;5.432;2022-09-03T12:06:11;3.50;;;1.58;;
74074;SDS011;62428;51.412;5.432;2022-09-03T12:11:46;5.53;;;2.17;;
74074;SDS011;62428;51.412;5.432;2022-09-03T12:14:21;4.53;;;2.30;;
74074;SDS011;62428;51.412;5.432;2022-09-03T12:17:03;4.40;;;1.73;;
74074;SDS011;62428;51.412;5.432;2022-09-03T12:19:53;8.65;;;2.25;;
74074;SDS011;62428;51.412;5.432;2022-09-03T12:22:21;8.00;;;1.83;;
74074;SDS011;62428;51.412;5.432;2022-09-03T12:24:48;4.03;;;1.80;;
74074;SDS011;62428;51.412;5.432;2022-09-03T12:27:19;3.13;;;1.70;;
74074;SDS011;62428;51.412;5.432;2022-09-03T12:29:52;3.42;;;1.90;;
74074;SDS011;62428;51.412;5.432;2022-09-03T12:32:24;3.92;;;1.65;;
74074;SDS011;62428;51.412;5.432;2022-09-03T12:34:52;5.60;;;1.60;;
74074;SDS011;62428;51.412;5.432;2022-09-03T12:37:21;7.77;;;2.10;;
74074;SDS011;62428;51.412;5.432;2022-09-03T12:39:49;3.35;;;1.60;;
74074;SDS011;62428;51.412;5.432;2022-09-03T12:42:21;3.63;;;1.63;;
74074;SDS011;62428;51.412;5.432;2022-09-03T12:44:49;3.35;;;1.33;;
74074;SDS011;62428;51.412;5.432;2022-09-03T12:47:15;4.73;;;1.70;;
74074;SDS011;62428;51.412;5.432;2022-09-03T12:49:43;3.53;;;1.52;;
74074;SDS011;62428;51.412;5.432;2022-09-03T12:52:19;2.35;;;1.63;;
74074;SDS011;62428;51.412;5.432;2022-09-03T12:57:29;4.70;;;1.50;;
74074;SDS011;62428;51.412;5.432;2022-09-03T13:00:04;5.00;;;1.42;;
74074;SDS011;62428;51.412;5.432;2022-09-03T13:02:36;2.85;;;1.58;;
74074;SDS011;62428;51.412;5.432;2022-09-03T13:08:26;2.10;;;1.53;;
74074;SDS011;62428;51.412;5.432;2022-09-03T13:10:56;3.28;;;2.03;;
74074;SDS011;62428;51.412;5.432;2022-09-03T13:13:47;4.90;;;1.73;;
74074;SDS011;62428;51.412;5.432;2022-09-03T13:35:12;5.67;;;1.83;;
74074;SDS011;62428;51.412;5.432;2022-09-03T13:37:44;3.70;;;1.90;;
74074;SDS011;62428;51.412;5.432;2022-09-03T13:40:18;3.42;;;1.70;;
74074;SDS011;62428;51.412;5.432;2022-09-03T13:42:50;3.87;;;2.23;;
74074;SDS011;62428;51.412;5.432;2022-09-03T13:51:16;3.17;;;2.30;;
74074;SDS011;62428;51.412;5.432;2022-09-03T13:56:31;3.63;;;1.70;;
74074;SDS011;62428;51.412;5.432;2022-09-03T13:59:02;7.38;;;2.35;;
74074;SDS011;62428;51.412;5.432;2022-09-03T14:02:21;3.38;;;2.10;;
74074;SDS011;62428;51.412;5.432;2022-09-03T14:04:50;2.67;;;1.88;;
74074;SDS011;62428;51.412;5.432;2022-09-03T14:07:30;4.10;;;2.20;;
74074;SDS011;62428;51.412;5.432;2022-09-03T14:10:23;5.40;;;2.20;;
74074;SDS011;62428;51.412;5.432;2022-09-03T14:16:19;3.55;;;2.42;;
74074;SDS011;62428;51.412;5.432;2022-09-03T14:18:58;2.95;;;1.65;;
74074;SDS011;62428;51.412;5.432;2022-09-03T14:27:02;2.03;;;1.73;;
74074;SDS011;62428;51.412;5.432;2022-09-03T14:29:29;4.53;;;2.03;;
74074;SDS011;62428;51.412;5.432;2022-09-03T14:39:55;3.85;;;1.90;;
74074;SDS011;62428;51.412;5.432;2022-09-03T14:45:17;4.82;;;1.60;;
74074;SDS011;62428;51.412;5.432;2022-09-03T14:56:02;2.13;;;1.60;;
74074;SDS011;62428;51.412;5.432;2022-09-03T15:01:40;4.15;;;1.80;;
74074;SDS011;62428;51.412;5.432;2022-09-03T15:10:31;3.80;;;1.73;;
74074;SDS011;62428;51.412;5.432;2022-09-03T15:13:07;3.00;;;1.95;;
74074;SDS011;62428;51.412;5.432;2022-09-03T15:18:10;3.63;;;2.05;;
74074;SDS011;62428;51.412;5.432;2022-09-03T15:35:51;3.63;;;2.07;;
74074;SDS011;62428;51.412;5.432;2022-09-03T15:38:04;6.30;;;1.98;;
74074;SDS011;62428;51.412;5.432;2022-09-03T15:51:02;4.97;;;2.20;;
74074;SDS011;62428;51.412;5.432;2022-09-03T15:53:44;7.15;;;2.00;;
74074;SDS011;62428;51.412;5.432;2022-09-03T15:56:13;4.75;;;2.22;;
74074;SDS011;62428;51.412;5.432;2022-09-03T15:58:52;3.83;;;2.35;;
74074;SDS011;62428;51.412;5.432;2022-09-03T16:06:43;6.40;;;2.38;;
74074;SDS011;62428;51.412;5.432;2022-09-03T16:15:05;3.33;;;2.05;;
74074;SDS011;62428;51.412;5.432;2022-09-03T16:17:32;3.80;;;1.83;;
74074;SDS011;62428;51.412;5.432;2022-09-03T16:20:08;3.67;;;2.20;;
74074;SDS011;62428;51.412;5.432;2022-09-03T16:22:41;2.30;;;2.10;;
74074;SDS011;62428;51.412;5.432;2022-09-03T16:25:30;8.10;;;2.40;;
74074;SDS011;62428;51.412;5.432;2022-09-03T16:28:02;2.60;;;1.92;;
74074;SDS011;62428;51.412;5.432;2022-09-03T16:52:46;4.15;;;2.08;;
74074;SDS011;62428;51.412;5.432;2022-09-03T16:55:26;3.53;;;2.03;;
74074;SDS011;62428;51.412;5.432;2022-09-03T17:03:49;3.30;;;2.33;;
74074;SDS011;62428;51.412;5.432;2022-09-03T17:08:45;2.92;;;1.90;;
74074;SDS011;62428;51.412;5.432;2022-09-03T17:11:40;3.67;;;2.17;;
74074;SDS011;62428;51.412;5.432;2022-09-03T17:17:26;6.15;;;2.63;;
74074;SDS011;62428;51.412;5.432;2022-09-03T17:20:29;4.65;;;1.75;;
74074;SDS011;62428;51.412;5.432;2022-09-03T17:26:16;3.80;;;2.10;;
74074;SDS011;62428;51.412;5.432;2022-09-03T17:28:58;4.10;;;1.88;;
74074;SDS011;62428;51.412;5.432;2022-09-03T17:31:49;4.82;;;2.40;;
74074;SDS011;62428;51.412;5.432;2022-09-03T17:37:28;3.83;;;2.15;;
74074;SDS011;62428;51.412;5.432;2022-09-03T17:40:54;4.70;;;2.00;;
74074;SDS011;62428;51.412;5.432;2022-09-03T17:43:11;5.07;;;2.15;;
74074;SDS011;62428;51.412;5.432;2022-09-03T17:48:51;5.75;;;1.80;;
74074;SDS011;62428;51.412;5.432;2022-09-03T17:53:47;6.80;;;1.90;;
74074;SDS011;62428;51.412;5.432;2022-09-03T17:56:25;4.38;;;2.03;;
74074;SDS011;62428;51.412;5.432;2022-09-03T18:01:46;8.38;;;2.40;;
74074;SDS011;62428;51.412;5.432;2022-09-03T18:07:21;6.83;;;1.93;;
74074;SDS011;62428;51.412;5.432;2022-09-03T18:09:55;4.93;;;2.05;;
74074;SDS011;62428;51.412;5.432;2022-09-03T18:15:47;3.55;;;2.10;;
74074;SDS011;62428;51.412;5.432;2022-09-03T18:18:26;3.83;;;2.50;;
74074;SDS011;62428;51.412;5.432;2022-09-03T18:20:54;4.13;;;2.10;;
74074;SDS011;62428;51.412;5.432;2022-09-03T18:26:33;5.53;;;2.38;;
74074;SDS011;62428;51.412;5.432;2022-09-03T18:32:21;2.35;;;1.85;;
74074;SDS011;62428;51.412;5.432;2022-09-03T18:35:06;3.20;;;2.00;;
74074;SDS011;62428;51.412;5.432;2022-09-03T18:37:51;3.45;;;2.35;;
74074;SDS011;62428;51.412;5.432;2022-09-03T18:40:42;7.13;;;2.40;;
74074;SDS011;62428;51.412;5.432;2022-09-03T18:43:43;3.75;;;2.20;;
74074;SDS011;62428;51.412;5.432;2022-09-03T18:47:02;4.63;;;2.15;;
74074;SDS011;62428;51.412;5.432;2022-09-03T18:50:43;7.53;;;2.10;;
74074;SDS011;62428;51.412;5.432;2022-09-03T19:03:01;4.55;;;2.70;;
74074;SDS011;62428;51.412;5.432;2022-09-03T19:12:31;6.70;;;3.78;;
74074;SDS011;62428;51.412;5.432;2022-09-03T19:15:24;8.57;;;4.30;;
74074;SDS011;62428;51.412;5.432;2022-09-03T19:21:38;7.00;;;3.20;;
74074;SDS011;62428;51.412;5.432;2022-09-03T19:24:30;4.25;;;2.80;;
74074;SDS011;62428;51.412;5.432;2022-09-03T19:30:25;9.48;;;3.63;;
74074;SDS011;62428;51.412;5.432;2022-09-03T19:42:51;7.10;;;2.67;;
74074;SDS011;62428;51.412;5.432;2022-09-03T19:45:42;6.45;;;3.10;;
74074;SDS011;62428;51.412;5.432;2022-09-03T19:48:59;9.23;;;3.10;;
74074;SDS011;62428;51.412;5.432;2022-09-03T19:52:21;4.23;;;2.70;;
74074;SDS011;62428;51.412;5.432;2022-09-03T19:55:02;6.75;;;2.92;;
74074;SDS011;62428;51.412;5.432;2022-09-03T19:57:47;5.95;;;2.95;;
74074;SDS011;62428;51.412;5.432;2022-09-03T20:00:37;5.57;;;2.90;;
74074;SDS011;62428;51.412;5.432;2022-09-03T20:03:21;6.03;;;3.13;;
74074;SDS011;62428;51.412;5.432;2022-09-03T20:06:07;6.67;;;2.83;;
74074;SDS011;62428;51.412;5.432;2022-09-03T20:08:52;5.20;;;2.60;;
74074;SDS011;62428;51.412;5.432;2022-09-03T20:11:43;7.88;;;2.88;;
74074;SDS011;62428;51.412;5.432;2022-09-03T20:14:12;6.43;;;2.83;;
74074;SDS011;62428;51.412;5.432;2022-09-03T20:17:04;6.70;;;3.10;;
74074;SDS011;62428;51.412;5.432;2022-09-03T20:27:50;7.22;;;2.92;;
74074;SDS011;62428;51.412;5.432;2022-09-03T20:30:19;5.43;;;3.15;;
74074;SDS011;62428;51.412;5.432;2022-09-03T20:35:43;7.25;;;3.13;;
74074;SDS011;62428;51.412;5.432;2022-09-03T20:52:04;6.80;;;3.38;;
74074;SDS011;62428;51.412;5.432;2022-09-03T20:54:36;7.00;;;3.38;;
74074;SDS011;62428;51.412;5.432;2022-09-03T21:04:53;6.32;;;3.60;;
74074;SDS011;62428;51.412;5.432;2022-09-03T21:21:18;7.93;;;3.30;;
74074;SDS011;62428;51.412;5.432;2022-09-03T21:23:59;5.90;;;3.63;;
74074;SDS011;62428;51.412;5.432;2022-09-03T21:26:44;7.63;;;3.28;;
74074;SDS011;62428;51.412;5.432;2022-09-03T21:31:46;8.57;;;3.60;;
74074;SDS011;62428;51.412;5.432;2022-09-03T21:34:40;8.45;;;3.72;;
74074;SDS011;62428;51.412;5.432;2022-09-03T21:37:11;5.47;;;3.70;;
74074;SDS011;62428;51.412;5.432;2022-09-03T21:39:46;5.97;;;3.70;;